Time;durP1;ratioP1;P1;durP2;ratioP2;P2;SDS_P1;SDS_P2;PMS_P1;PMS_P2;Temp;Humidity;BMP_temperature;BMP_pressure;BME280_temperature;BME280_humidity;BME280_pressure;Samples;Min_cycle;Max_cycle;Signal;HPM_P1;HPM_P2
2023/06/26 00:00:49;;;;;;;;;;;18.60;94.30;;;;;;5026627;28;19933;-63
2023/06/26 00:03:20;;;;;;;;;;;18.60;94.70;;;;;;5029001;28;20316;-63
2023/06/26 00:05:52;;;;;;;;;;;18.50;95.10;;;;;;5030077;28;19925;-63
2023/06/26 00:08:24;;;;;;;;;;;18.40;95.50;;;;;;5026307;28;20043;-63
2023/06/26 00:10:56;;;;;;;;;;;18.40;96.10;;;;;;5021585;28;19925;-63
2023/06/26 00:13:27;;;;;;;;;;;18.30;96.10;;;;;;5031942;28;19929;-63
2023/06/26 00:16:02;;;;;;;;;;;18.30;96.40;;;;;;5024153;28;20390;-63
2023/06/26 00:18:34;;;;;;;;;;;18.20;96.80;;;;;;5023658;28;19925;-63
2023/06/26 00:21:06;;;;;;;;;;;18.20;97.10;;;;;;5026606;28;19929;-64
2023/06/26 00:23:38;;;;;;;;;;;18.10;97.50;;;;;;5026349;28;20015;-62
2023/06/26 00:26:04;;;;;;;;;;;18.00;98.10;;;;;;5027563;28;19929;-63
2023/06/26 00:28:36;;;;;;;;;;;18.00;98.60;;;;;;5026941;28;19971;-62
2023/06/26 00:31:08;;;;;;;;;;;17.90;99.10;;;;;;5027825;28;19939;-62
2023/06/26 00:33:35;;;;;;;;;;;17.80;99.40;;;;;;5030147;28;19964;-63
2023/06/26 00:36:06;;;;;;;;;;;17.90;99.90;;;;;;5030704;28;19955;-63
2023/06/26 00:38:38;;;;;;;;;;;17.90;99.90;;;;;;5029678;28;19951;-63
2023/06/26 00:41:12;;;;;;;;;;;17.90;99.90;;;;;;5028221;28;20386;-63
2023/06/26 00:43:43;;;;;;;;;;;17.80;99.90;;;;;;5010956;28;19925;-62
2023/06/26 00:46:15;;;;;;;;;;;17.80;99.90;;;;;;5023110;28;19932;-63
2023/06/26 00:48:48;;;;;;;;;;;17.70;99.90;;;;;;5020880;28;20016;-63
2023/06/26 00:51:19;;;;;;;;;;;17.70;99.90;;;;;;5031266;28;19925;-64
2023/06/26 00:53:51;;;;;;;;;;;17.70;99.90;;;;;;5022152;28;20476;-63
2023/06/26 00:56:23;;;;;;;;;;;17.60;99.90;;;;;;5023472;28;19926;-62
2023/06/26 00:58:56;;;;;;;;;;;17.60;99.90;;;;;;5019738;28;19983;-63
2023/06/26 01:01:28;;;;;;;;;;;17.60;99.90;;;;;;5008084;28;19929;-63
2023/06/26 01:03:59;;;;;;;;;;;17.60;99.90;;;;;;5028946;28;19936;-62
2023/06/26 01:06:35;;;;;;;;;;;17.60;99.90;;;;;;5020484;28;19929;-62
2023/06/26 01:09:07;;;;;;;;;;;17.60;99.90;;;;;;5021897;28;20021;-63
2023/06/26 01:11:39;;;;;;;;;;;17.50;99.90;;;;;;5029562;28;20041;-63
2023/06/26 01:14:11;;;;;;;;;;;17.50;99.90;;;;;;5028488;28;20303;-63
2023/06/26 01:16:47;;;;;;;;;;;17.50;99.90;;;;;;5024277;28;19930;-63
2023/06/26 01:19:24;;;;;;;;;;;17.40;99.90;;;;;;5023511;28;20432;-63
2023/06/26 01:22:02;;;;;;;;;;;17.40;99.90;;;;;;5019766;28;20304;-63
2023/06/26 01:24:37;;;;;;;;;;;17.40;99.90;;;;;;5028239;28;20308;-63
2023/06/26 01:27:09;;;;;;;;;;;17.30;99.90;;;;;;5001213;28;19929;-63
2023/06/26 01:29:41;;;;;;;;;;;17.20;99.90;;;;;;5018075;28;19932;-63
2023/06/26 01:32:13;;;;;;;;;;;17.20;99.90;;;;;;5023000;28;19930;-63
2023/06/26 01:34:45;;;;;;;;;;;17.10;99.90;;;;;;5018992;28;19930;-63
2023/06/26 01:37:17;;;;;;;;;;;17.10;99.90;;;;;;5027056;28;19935;-63
2023/06/26 01:39:49;;;;;;;;;;;17.10;99.90;;;;;;5028543;28;20069;-63
2023/06/26 01:42:20;;;;;;;;;;;17.10;99.90;;;;;;5023495;28;19925;-63
2023/06/26 01:44:53;;;;;;;;;;;17.10;99.90;;;;;;5028295;28;19976;-63
2023/06/26 01:47:26;;;;;;;;;;;17.00;99.90;;;;;;5028893;28;19935;-63
2023/06/26 01:50:00;;;;;;;;;;;17.00;99.90;;;;;;4997905;28;19936;-63
2023/06/26 01:52:38;;;;;;;;;;;16.90;99.90;;;;;;5027141;28;19936;-62
2023/06/26 01:55:28;;;;;;;;;;;16.80;99.90;;;;;;5000356;28;19926;-63
2023/06/26 01:57:56;;;;;;;;;;;16.80;99.90;;;;;;5020146;28;19925;-63
2023/06/26 02:00:24;;;;;;;;;;;16.70;99.90;;;;;;5042363;28;19929;-63
2023/06/26 02:02:57;;;;;;;;;;;16.70;99.90;;;;;;5022701;28;19929;-63
2023/06/26 02:05:30;;;;;;;;;;;16.70;99.90;;;;;;5028236;28;19929;-63
2023/06/26 02:08:03;;;;;;;;;;;16.70;99.90;;;;;;5028280;28;19925;-63
2023/06/26 02:10:35;;;;;;;;;;;16.70;99.90;;;;;;5018451;28;19984;-63
2023/06/26 02:13:06;;;;;;;;;;;16.60;99.90;;;;;;5027694;28;19933;-63
2023/06/26 02:15:39;;;;;;;;;;;16.60;99.90;;;;;;5011872;28;19931;-63
2023/06/26 02:18:10;;;;;;;;;;;16.60;99.90;;;;;;5014899;28;19926;-63
2023/06/26 02:20:43;;;;;;;;;;;16.60;99.90;;;;;;5022509;28;19975;-62
2023/06/26 02:23:15;;;;;;;;;;;16.60;99.90;;;;;;5025653;28;20500;-63
2023/06/26 02:25:47;;;;;;;;;;;16.50;99.90;;;;;;5007190;28;19948;-63
2023/06/26 02:28:19;;;;;;;;;;;16.50;99.90;;;;;;5020508;28;19929;-63
2023/06/26 02:30:50;;;;;;;;;;;16.50;99.90;;;;;;5019959;28;19933;-64
2023/06/26 02:33:23;;;;;;;;;;;16.50;99.90;;;;;;5021051;28;19932;-63
2023/06/26 02:35:55;;;;;;;;;;;16.40;99.90;;;;;;5010822;28;19983;-63
2023/06/26 02:38:27;;;;;;;;;;;16.40;99.90;;;;;;5026832;28;19936;-62
2023/06/26 02:41:01;;;;;;;;;;;16.50;99.90;;;;;;5010627;28;19925;-63
2023/06/26 02:43:28;;;;;;;;;;;16.50;99.90;;;;;;5029624;28;19953;-63
2023/06/26 02:46:00;;;;;;;;;;;16.40;99.90;;;;;;5020745;28;19925;-62
2023/06/26 02:48:32;;;;;;;;;;;16.40;99.90;;;;;;5007773;28;19932;-62
2023/06/26 02:51:03;;;;;;;;;;;16.40;99.90;;;;;;5020266;28;19925;-63
2023/06/26 02:53:35;;;;;;;;;;;16.40;99.90;;;;;;5018868;28;19936;-63
2023/06/26 02:56:08;;;;;;;;;;;16.30;99.90;;;;;;5024067;28;19968;-63
2023/06/26 02:58:40;;;;;;;;;;;16.20;99.90;;;;;;5032264;28;20413;-63
2023/06/26 03:01:12;;;;;;;;;;;16.20;99.90;;;;;;5027496;28;19975;-63
2023/06/26 03:03:46;;;;;;;;;;;16.20;99.90;;;;;;5026917;28;19984;-63
2023/06/26 03:06:19;;;;;;;;;;;16.20;99.90;;;;;;5028526;28;19940;-62
2023/06/26 03:08:51;;;;;;;;;;;16.20;99.90;;;;;;5026904;28;20373;-63
2023/06/26 03:11:22;;;;;;;;;;;16.10;99.90;;;;;;5022388;28;19929;-62
2023/06/26 03:13:54;;;;;;;;;;;16.20;99.90;;;;;;5020572;28;19930;-63
2023/06/26 03:16:26;;;;;;;;;;;16.10;99.90;;;;;;5023278;28;20026;-63
2023/06/26 03:18:58;;;;;;;;;;;16.10;99.90;;;;;;5039988;28;19929;-63
2023/06/26 03:21:34;;;;;;;;;;;16.00;99.90;;;;;;5021963;28;19929;-62
2023/06/26 03:24:06;;;;;;;;;;;16.00;99.90;;;;;;5026492;28;19929;-63
2023/06/26 03:26:37;;;;;;;;;;;15.90;99.90;;;;;;5023776;28;19925;-63
2023/06/26 03:29:09;;;;;;;;;;;15.90;99.90;;;;;;5026881;28;19926;-63
2023/06/26 03:31:41;;;;;;;;;;;15.90;99.90;;;;;;5027725;28;19925;-62
2023/06/26 03:34:13;;;;;;;;;;;16.00;99.90;;;;;;5019013;28;20054;-63
2023/06/26 03:36:45;;;;;;;;;;;15.90;99.90;;;;;;5027351;28;20435;-63
2023/06/26 03:39:11;;;;;;;;;;;16.00;99.90;;;;;;5028261;28;19933;-63
2023/06/26 03:41:43;;;;;;;;;;;16.00;99.90;;;;;;5033752;28;19932;-63
2023/06/26 03:44:16;;;;;;;;;;;16.00;99.90;;;;;;5022688;28;19932;-63
2023/06/26 03:46:48;;;;;;;;;;;16.00;99.90;;;;;;5023024;28;19925;-63
2023/06/26 03:49:20;;;;;;;;;;;16.00;99.90;;;;;;5022775;28;19935;-63
2023/06/26 03:51:52;;;;;;;;;;;16.00;99.90;;;;;;5025446;28;19929;-63
2023/06/26 03:54:24;;;;;;;;;;;16.10;99.90;;;;;;5027016;28;19932;-63
2023/06/26 03:56:56;;;;;;;;;;;16.30;99.90;;;;;;5015212;28;20361;-63
2023/06/26 03:59:27;;;;;;;;;;;16.30;99.90;;;;;;5021426;28;20401;-62
2023/06/26 04:01:59;;;;;;;;;;;16.30;99.90;;;;;;5016934;28;19936;-63
2023/06/26 04:04:31;;;;;;;;;;;16.30;99.90;;;;;;5020340;28;19932;-63
2023/06/26 04:07:03;;;;;;;;;;;16.30;99.90;;;;;;5026911;28;20025;-62
2023/06/26 04:09:36;;;;;;;;;;;16.30;99.90;;;;;;5027026;28;19976;-64
2023/06/26 04:12:08;;;;;;;;;;;16.30;99.90;;;;;;5023941;28;19929;-63
2023/06/26 04:14:39;;;;;;;;;;;16.20;99.90;;;;;;5026499;28;20397;-65
2023/06/26 04:17:11;;;;;;;;;;;16.20;99.90;;;;;;5017997;28;20386;-65
2023/06/26 04:19:43;;;;;;;;;;;16.20;99.90;;;;;;5030416;28;20024;-65
2023/06/26 04:22:15;;;;;;;;;;;16.10;99.90;;;;;;5017462;28;20511;-65
2023/06/26 04:24:47;;;;;;;;;;;16.10;99.90;;;;;;5027171;28;19925;-63
2023/06/26 04:27:14;;;;;;;;;;;16.20;99.90;;;;;;5018969;28;20374;-63
2023/06/26 04:29:45;;;;;;;;;;;16.20;99.90;;;;;;5020566;28;19951;-62
2023/06/26 04:32:17;;;;;;;;;;;16.30;99.90;;;;;;5021952;28;20034;-62
2023/06/26 04:34:44;;;;;;;;;;;16.50;99.90;;;;;;5024962;28;19925;-62
2023/06/26 04:37:17;;;;;;;;;;;16.90;99.90;;;;;;5022411;28;19932;-62
2023/06/26 04:39:48;;;;;;;;;;;16.90;99.90;;;;;;5024662;28;19929;-63
2023/06/26 04:42:21;;;;;;;;;;;16.90;99.90;;;;;;5026579;28;19925;-64
2023/06/26 04:44:53;;;;;;;;;;;16.80;99.90;;;;;;5022671;28;19932;-62
2023/06/26 04:47:24;;;;;;;;;;;16.80;99.90;;;;;;5027022;28;19940;-64
2023/06/26 04:49:56;;;;;;;;;;;16.80;99.90;;;;;;5025631;28;19932;-62
2023/06/26 04:52:28;;;;;;;;;;;16.80;99.90;;;;;;5025520;28;19929;-62
2023/06/26 04:54:59;;;;;;;;;;;16.80;99.90;;;;;;5021990;28;20016;-62
2023/06/26 04:57:31;;;;;;;;;;;16.90;99.90;;;;;;5027158;28;19925;-64
2023/06/26 05:00:09;;;;;;;;;;;16.90;99.90;;;;;;5026493;28;19925;-62
2023/06/26 05:02:41;;;;;;;;;;;16.90;99.90;;;;;;5022653;28;19925;-62
2023/06/26 05:05:13;;;;;;;;;;;16.90;99.90;;;;;;5020614;28;19925;-62
2023/06/26 05:07:45;;;;;;;;;;;16.90;99.90;;;;;;5023179;28;19936;-63
2023/06/26 05:10:17;;;;;;;;;;;17.00;99.90;;;;;;5017231;28;20436;-62
2023/06/26 05:12:49;;;;;;;;;;;17.00;99.90;;;;;;5021889;28;20013;-62
2023/06/26 05:15:20;;;;;;;;;;;17.00;99.90;;;;;;5019133;28;19933;-62
2023/06/26 05:17:52;;;;;;;;;;;17.10;99.90;;;;;;5026491;28;19929;-62
2023/06/26 05:20:24;;;;;;;;;;;17.20;99.90;;;;;;5028943;28;19929;-62
2023/06/26 05:22:56;;;;;;;;;;;17.20;99.90;;;;;;5028353;28;19929;-62
2023/06/26 05:25:29;;;;;;;;;;;17.30;99.90;;;;;;5028304;28;20308;-62
2023/06/26 05:28:01;;;;;;;;;;;17.30;99.90;;;;;;5027828;28;19932;-62
2023/06/26 05:30:35;;;;;;;;;;;17.40;99.90;;;;;;5029713;28;20309;-62
2023/06/26 05:33:08;;;;;;;;;;;17.50;99.90;;;;;;5021339;28;19945;-62
2023/06/26 05:35:36;;;;;;;;;;;17.50;99.90;;;;;;5026548;28;19936;-62
2023/06/26 05:38:08;;;;;;;;;;;17.60;99.90;;;;;;5025944;28;19929;-63
2023/06/26 05:40:40;;;;;;;;;;;17.70;99.90;;;;;;5028694;28;19969;-62
2023/06/26 05:43:07;;;;;;;;;;;17.70;99.90;;;;;;5027383;28;19993;-62
2023/06/26 05:45:39;;;;;;;;;;;17.80;99.90;;;;;;5024676;28;19925;-62
2023/06/26 05:48:11;;;;;;;;;;;17.80;99.90;;;;;;5021690;28;19983;-62
2023/06/26 05:50:43;;;;;;;;;;;17.80;99.90;;;;;;5021034;28;19931;-62
2023/06/26 05:53:10;;;;;;;;;;;17.90;99.90;;;;;;5017673;28;19929;-62
2023/06/26 05:55:42;;;;;;;;;;;18.00;99.90;;;;;;5021326;28;19926;-62
2023/06/26 05:58:14;;;;;;;;;;;18.00;99.90;;;;;;5020024;28;19926;-62
2023/06/26 06:00:46;;;;;;;;;;;18.20;99.90;;;;;;5017104;28;19925;-62
2023/06/26 06:03:18;;;;;;;;;;;18.20;99.90;;;;;;5028798;28;20317;-62
2023/06/26 06:05:50;;;;;;;;;;;18.30;99.90;;;;;;5026876;28;19969;-62
2023/06/26 06:08:21;;;;;;;;;;;18.40;99.90;;;;;;5025188;28;19929;-62
2023/06/26 06:10:53;;;;;;;;;;;18.50;99.90;;;;;;5023921;28;19970;-62
2023/06/26 06:13:25;;;;;;;;;;;18.60;99.90;;;;;;5027613;28;19925;-62
2023/06/26 06:15:57;;;;;;;;;;;18.70;99.90;;;;;;5027628;28;20449;-62
2023/06/26 06:18:28;;;;;;;;;;;18.80;99.90;;;;;;5030551;28;20352;-62
2023/06/26 06:21:00;;;;;;;;;;;18.90;99.90;;;;;;5029444;28;19940;-61
2023/06/26 06:23:32;;;;;;;;;;;19.00;99.90;;;;;;5026815;28;20524;-63
2023/06/26 06:25:58;;;;;;;;;;;19.10;99.90;;;;;;5023880;28;19992;-62
2023/06/26 06:28:31;;;;;;;;;;;19.30;99.90;;;;;;5014382;28;20468;-62
2023/06/26 06:31:02;;;;;;;;;;;19.50;99.90;;;;;;5026400;28;19937;-63
2023/06/26 06:33:35;;;;;;;;;;;19.70;99.90;;;;;;5023703;28;20393;-62
2023/06/26 06:36:07;;;;;;;;;;;19.90;99.90;;;;;;5027227;28;19954;-62
2023/06/26 06:38:43;;;;;;;;;;;20.30;99.90;;;;;;5027912;28;19925;-62
2023/06/26 06:41:16;;;;;;;;;;;20.60;99.90;;;;;;5025810;28;20024;-62
2023/06/26 06:43:47;;;;;;;;;;;20.80;99.90;;;;;;5025696;28;20393;-62
2023/06/26 06:46:19;;;;;;;;;;;21.10;99.90;;;;;;5022002;28;19936;-62
2023/06/26 06:48:51;;;;;;;;;;;21.20;99.90;;;;;;5020556;28;19933;-62
2023/06/26 06:51:18;;;;;;;;;;;21.30;99.90;;;;;;5019353;28;20036;-62
2023/06/26 06:53:49;;;;;;;;;;;21.50;99.90;;;;;;5028598;28;20124;-62
2023/06/26 06:56:21;;;;;;;;;;;21.60;99.90;;;;;;5022157;28;19935;-62
2023/06/26 06:58:53;;;;;;;;;;;21.80;99.90;;;;;;5026379;28;20016;-63
2023/06/26 07:01:25;;;;;;;;;;;21.90;99.90;;;;;;5012656;28;19929;-63
2023/06/26 07:03:57;;;;;;;;;;;22.10;99.90;;;;;;5024073;28;20297;-60
2023/06/26 07:06:29;;;;;;;;;;;22.20;99.90;;;;;;5024971;28;19932;-59
2023/06/26 07:09:01;;;;;;;;;;;22.40;99.90;;;;;;5021992;28;20308;-60
2023/06/26 07:11:32;;;;;;;;;;;22.40;99.90;;;;;;5024516;28;20012;-60
2023/06/26 07:13:59;;;;;;;;;;;22.50;99.90;;;;;;5018034;28;19929;-60
2023/06/26 07:16:31;;;;;;;;;;;22.70;99.90;;;;;;5019772;28;19933;-60
2023/06/26 07:19:03;;;;;;;;;;;22.80;99.90;;;;;;5019333;28;19968;-60
2023/06/26 07:21:35;;;;;;;;;;;22.90;99.90;;;;;;5029354;28;19926;-60
2023/06/26 07:24:06;;;;;;;;;;;23.10;99.90;;;;;;5019952;28;19935;-60
2023/06/26 07:26:38;;;;;;;;;;;23.20;99.90;;;;;;5022767;28;19980;-60
2023/06/26 07:29:10;;;;;;;;;;;23.40;99.90;;;;;;5024858;28;19932;-59
2023/06/26 07:31:41;;;;;;;;;;;23.60;99.90;;;;;;5020693;28;19925;-60
2023/06/26 07:34:13;;;;;;;;;;;23.70;99.90;;;;;;5023360;28;20390;-60
2023/06/26 07:36:45;;;;;;;;;;;23.80;99.90;;;;;;5017702;28;19961;-60
2023/06/26 07:39:17;;;;;;;;;;;24.00;99.90;;;;;;5016328;28;20352;-60
2023/06/26 07:41:49;;;;;;;;;;;24.10;99.90;;;;;;5017479;28;19961;-60
2023/06/26 07:44:21;;;;;;;;;;;24.30;99.90;;;;;;5018250;28;19968;-60
2023/06/26 07:46:53;;;;;;;;;;;24.40;99.90;;;;;;5018078;28;20313;-60
2023/06/26 07:49:20;;;;;;;;;;;24.50;99.90;;;;;;5019756;28;20007;-60
2023/06/26 07:51:51;;;;;;;;;;;24.70;99.90;;;;;;5023221;28;19929;-60
2023/06/26 07:54:23;;;;;;;;;;;24.80;99.90;;;;;;5023437;28;20015;-61
2023/06/26 07:57:02;;;;;;;;;;;24.80;99.90;;;;;;5020923;28;19933;-60
2023/06/26 07:59:33;;;;;;;;;;;25.00;99.90;;;;;;5023535;28;19925;-61
2023/06/26 08:02:05;;;;;;;;;;;25.10;99.90;;;;;;5019743;28;19965;-60
2023/06/26 08:04:37;;;;;;;;;;;25.20;99.90;;;;;;5016253;28;19932;-60
2023/06/26 08:07:09;;;;;;;;;;;25.40;99.90;;;;;;5025896;28;19929;-59
2023/06/26 08:09:41;;;;;;;;;;;25.50;99.90;;;;;;5017330;28;19929;-60
2023/06/26 08:12:13;;;;;;;;;;;25.60;99.60;;;;;;5017902;28;20026;-60
2023/06/26 08:14:45;;;;;;;;;;;25.70;99.50;;;;;;5025498;28;19932;-60
2023/06/26 08:17:16;;;;;;;;;;;25.80;98.60;;;;;;5025658;28;19929;-60
2023/06/26 08:19:48;;;;;;;;;;;25.90;98.50;;;;;;5025139;28;19959;-60
2023/06/26 08:22:20;;;;;;;;;;;26.00;99.10;;;;;;5022579;28;19943;-60
2023/06/26 08:24:51;;;;;;;;;;;26.10;98.90;;;;;;5021357;28;19929;-59
2023/06/26 08:27:23;;;;;;;;;;;26.30;97.80;;;;;;5017514;28;19929;-60
2023/06/26 08:29:55;;;;;;;;;;;26.30;96.70;;;;;;5025602;28;19933;-60
2023/06/26 08:32:21;;;;;;;;;;;26.40;96.30;;;;;;5024983;28;20024;-60
2023/06/26 08:34:53;;;;;;;;;;;26.60;96.00;;;;;;5024007;28;19925;-60
2023/06/26 08:37:25;;;;;;;;;;;26.60;95.00;;;;;;5028749;28;19932;-60
2023/06/26 08:39:57;;;;;;;;;;;26.70;96.00;;;;;;5029322;28;19933;-60
2023/06/26 08:42:28;;;;;;;;;;;26.70;95.10;;;;;;5024093;28;19948;-60
2023/06/26 08:45:00;;;;;;;;;;;26.70;94.60;;;;;;5024846;28;19983;-60
2023/06/26 08:47:33;;;;;;;;;;;26.90;93.30;;;;;;5023445;28;19925;-60
2023/06/26 08:50:10;;;;;;;;;;;27.10;93.20;;;;;;5025523;28;20027;-60
2023/06/26 08:52:53;;;;;;;;;;;27.20;93.10;;;;;;5023985;28;20031;-61
2023/06/26 08:55:26;;;;;;;;;;;27.20;93.20;;;;;;5017455;28;19936;-61
2023/06/26 08:57:58;;;;;;;;;;;27.30;93.20;;;;;;5026824;28;19932;-61
2023/06/26 09:00:30;;;;;;;;;;;27.30;93.70;;;;;;5026256;28;19932;-61
2023/06/26 09:03:03;;;;;;;;;;;27.50;93.40;;;;;;5027443;28;19936;-61
2023/06/26 09:05:35;;;;;;;;;;;27.50;92.60;;;;;;5025525;28;19976;-61
2023/06/26 09:08:07;;;;;;;;;;;27.60;91.90;;;;;;5023261;28;20024;-61
2023/06/26 09:10:39;;;;;;;;;;;27.80;91.90;;;;;;5022276;28;19926;-61
2023/06/26 09:13:10;;;;;;;;;;;28.00;91.00;;;;;;5020648;28;19940;-61
2023/06/26 09:15:39;;;;;;;;;;;28.10;90.90;;;;;;5016709;28;20024;-61
2023/06/26 09:18:11;;;;;;;;;;;28.10;90.60;;;;;;5027874;28;20304;-60
2023/06/26 09:20:42;;;;;;;;;;;28.10;90.50;;;;;;5028623;28;19929;-61
2023/06/26 09:23:15;;;;;;;;;;;28.30;90.70;;;;;;5026588;28;19979;-61
2023/06/26 09:25:47;;;;;;;;;;;28.30;89.50;;;;;;5024253;28;20393;-61
2023/06/26 09:28:19;;;;;;;;;;;28.20;89.20;;;;;;5024560;28;19960;-61
2023/06/26 09:30:46;;;;;;;;;;;28.10;87.90;;;;;;5026778;28;20400;-61
2023/06/26 09:33:13;;;;;;;;;;;28.00;89.00;;;;;;5028330;28;19948;-61
2023/06/26 09:35:40;;;;;;;;;;;28.10;88.70;;;;;;5027886;28;19936;-61
2023/06/26 09:38:13;;;;;;;;;;;28.20;88.20;;;;;;5030168;28;19929;-61
2023/06/26 09:40:44;;;;;;;;;;;28.20;84.70;;;;;;5025125;28;19925;-61
2023/06/26 09:43:18;;;;;;;;;;;28.20;83.30;;;;;;5024726;28;19926;-61
2023/06/26 09:45:45;;;;;;;;;;;28.20;85.00;;;;;;5031062;28;20362;-61
2023/06/26 09:48:17;;;;;;;;;;;28.30;83.90;;;;;;5025223;28;19932;-61
2023/06/26 09:50:49;;;;;;;;;;;28.40;84.00;;;;;;5023253;28;20004;-64
2023/06/26 09:53:21;;;;;;;;;;;28.50;84.80;;;;;;5025690;28;19929;-61
2023/06/26 09:55:52;;;;;;;;;;;28.50;81.20;;;;;;5024975;28;20027;-62
2023/06/26 09:58:24;;;;;;;;;;;28.30;80.70;;;;;;5026631;28;20427;-61
2023/06/26 10:00:56;;;;;;;;;;;28.30;81.70;;;;;;5026463;28;19932;-62
2023/06/26 10:03:28;;;;;;;;;;;28.40;82.30;;;;;;5027523;28;19936;-61
2023/06/26 10:06:00;;;;;;;;;;;28.40;80.50;;;;;;5023586;28;19925;-62
2023/06/26 10:08:33;;;;;;;;;;;28.50;81.00;;;;;;5022136;28;19929;-61
2023/06/26 10:11:07;;;;;;;;;;;28.60;81.40;;;;;;5020251;28;19929;-61
2023/06/26 10:13:41;;;;;;;;;;;28.80;80.60;;;;;;5021911;28;19925;-62
2023/06/26 10:16:15;;;;;;;;;;;28.70;80.20;;;;;;5022073;28;19929;-61
2023/06/26 10:18:48;;;;;;;;;;;28.60;79.40;;;;;;5024587;28;19947;-62
2023/06/26 10:21:22;;;;;;;;;;;28.70;80.60;;;;;;5023980;28;20308;-62
2023/06/26 10:23:51;;;;;;;;;;;28.80;81.00;;;;;;5026329;28;20024;-61
2023/06/26 10:26:24;;;;;;;;;;;28.80;82.70;;;;;;5024563;28;19929;-61
2023/06/26 10:28:56;;;;;;;;;;;29.10;80.70;;;;;;5024308;28;19936;-61
2023/06/26 10:31:30;;;;;;;;;;;29.30;81.60;;;;;;5018659;28;20020;-62
2023/06/26 10:34:01;;;;;;;;;;;29.50;77.60;;;;;;5019142;28;19933;-62
2023/06/26 10:36:35;;;;;;;;;;;29.60;77.60;;;;;;5019439;28;19935;-62
2023/06/26 10:39:06;;;;;;;;;;;29.70;77.40;;;;;;5023379;28;19932;-62
2023/06/26 10:41:42;;;;;;;;;;;29.80;78.10;;;;;;5021393;28;19925;-61
2023/06/26 10:44:16;;;;;;;;;;;29.90;78.40;;;;;;5022849;28;20297;-62
2023/06/26 10:46:49;;;;;;;;;;;30.00;78.00;;;;;;5019074;28;19931;-62
2023/06/26 10:49:24;;;;;;;;;;;30.10;78.80;;;;;;5024865;28;19965;-62
2023/06/26 10:52:00;;;;;;;;;;;30.00;75.50;;;;;;5022634;28;19925;-62
2023/06/26 10:54:32;;;;;;;;;;;30.10;76.50;;;;;;5024315;28;19929;-61
2023/06/26 10:57:07;;;;;;;;;;;29.90;75.10;;;;;;5025372;28;19930;-62
2023/06/26 10:59:39;;;;;;;;;;;29.90;77.90;;;;;;5027589;28;19932;-62
2023/06/26 11:02:11;;;;;;;;;;;29.90;75.80;;;;;;5025861;28;19929;-62
2023/06/26 11:04:39;;;;;;;;;;;29.90;74.00;;;;;;5027816;28;20036;-61
2023/06/26 11:07:19;;;;;;;;;;;29.80;75.70;;;;;;5023638;28;19925;-62
2023/06/26 11:09:58;;;;;;;;;;;29.70;75.70;;;;;;5021595;28;19969;-61
2023/06/26 11:12:34;;;;;;;;;;;29.60;75.10;;;;;;5022777;28;19929;-62
2023/06/26 11:15:09;;;;;;;;;;;29.60;75.70;;;;;;5021441;28;19925;-62
2023/06/26 11:17:41;;;;;;;;;;;29.80;75.30;;;;;;5020172;28;19932;-62
2023/06/26 11:20:14;;;;;;;;;;;30.00;74.50;;;;;;5020142;28;19935;-62
2023/06/26 11:22:46;;;;;;;;;;;30.00;71.20;;;;;;5002351;28;19933;-61
2023/06/26 11:25:19;;;;;;;;;;;30.00;72.00;;;;;;5026182;28;19995;-62
2023/06/26 11:27:53;;;;;;;;;;;30.00;72.80;;;;;;5020953;28;19929;-62
2023/06/26 11:30:25;;;;;;;;;;;30.10;72.10;;;;;;5025487;28;19974;-61
2023/06/26 11:33:04;;;;;;;;;;;30.30;73.70;;;;;;5022682;28;19929;-62
2023/06/26 11:35:36;;;;;;;;;;;30.40;72.10;;;;;;5021738;28;19983;-62
2023/06/26 11:38:08;;;;;;;;;;;30.10;72.50;;;;;;5024970;28;19931;-64
2023/06/26 11:40:40;;;;;;;;;;;30.20;74.30;;;;;;5022967;28;19933;-64
2023/06/26 11:43:13;;;;;;;;;;;30.20;74.60;;;;;;5019795;28;20468;-65
2023/06/26 11:45:45;;;;;;;;;;;29.90;73.60;;;;;;5020528;28;19936;-63
2023/06/26 11:48:17;;;;;;;;;;;29.70;71.60;;;;;;5024672;28;19929;-64
2023/06/26 11:50:52;;;;;;;;;;;29.50;71.70;;;;;;5027184;28;20015;-64
2023/06/26 11:53:24;;;;;;;;;;;29.40;71.20;;;;;;5025116;28;19925;-63
2023/06/26 11:55:56;;;;;;;;;;;29.20;70.70;;;;;;5025258;28;20595;-64
2023/06/26 11:58:28;;;;;;;;;;;29.40;71.50;;;;;;5027836;28;19925;-64
2023/06/26 12:01:00;;;;;;;;;;;29.70;70.50;;;;;;5028163;28;19929;-64
2023/06/26 12:03:31;;;;;;;;;;;30.10;72.00;;;;;;5026433;28;19929;-64
2023/06/26 12:06:05;;;;;;;;;;;30.30;69.80;;;;;;5026597;28;19926;-64
2023/06/26 12:08:37;;;;;;;;;;;30.40;69.50;;;;;;5022655;28;19929;-64
2023/06/26 12:11:09;;;;;;;;;;;30.60;67.70;;;;;;5026785;28;20431;-64
2023/06/26 12:13:41;;;;;;;;;;;30.80;68.10;;;;;;5026923;28;20019;-64
2023/06/26 12:16:14;;;;;;;;;;;30.80;68.10;;;;;;5023559;28;20021;-63
2023/06/26 12:18:46;;;;;;;;;;;30.80;66.40;;;;;;5026963;28;19960;-64
2023/06/26 12:21:28;;;;;;;;;;;31.00;67.40;;;;;;5026299;28;19929;-64
2023/06/26 12:24:00;;;;;;;;;;;31.20;65.50;;;;;;5021154;28;20418;-64
2023/06/26 12:26:38;;;;;;;;;;;31.40;65.20;;;;;;5030984;28;20300;-64
2023/06/26 12:29:14;;;;;;;;;;;31.40;65.30;;;;;;5020187;28;19929;-64
2023/06/26 12:31:52;;;;;;;;;;;31.10;64.60;;;;;;5022457;28;19933;-64
2023/06/26 12:34:27;;;;;;;;;;;30.70;64.70;;;;;;5027456;28;19929;-64
2023/06/26 12:36:59;;;;;;;;;;;30.50;63.80;;;;;;5028007;28;20393;-64
2023/06/26 12:39:44;;;;;;;;;;;30.60;63.10;;;;;;5028636;28;20011;-64
2023/06/26 12:42:26;;;;;;;;;;;30.60;64.00;;;;;;5026280;28;19965;-63
2023/06/26 12:44:58;;;;;;;;;;;30.50;63.80;;;;;;5030115;28;19957;-64
2023/06/26 12:47:31;;;;;;;;;;;30.70;64.60;;;;;;5026867;28;19940;-65
2023/06/26 12:50:05;;;;;;;;;;;30.90;64.10;;;;;;5031098;28;19936;-64
2023/06/26 12:52:37;;;;;;;;;;;31.00;62.90;;;;;;5029552;28;19929;-64
2023/06/26 12:55:09;;;;;;;;;;;31.10;62.70;;;;;;5032661;28;20412;-64
2023/06/26 12:57:40;;;;;;;;;;;31.30;61.00;;;;;;5027753;28;19929;-64
2023/06/26 13:00:12;;;;;;;;;;;31.60;59.90;;;;;;5029161;28;20020;-65
2023/06/26 13:02:45;;;;;;;;;;;31.60;60.90;;;;;;5031019;28;20016;-65
2023/06/26 13:05:17;;;;;;;;;;;31.60;60.50;;;;;;5026429;28;20360;-64
2023/06/26 13:07:49;;;;;;;;;;;31.70;60.40;;;;;;5026610;28;19936;-64
2023/06/26 13:10:21;;;;;;;;;;;31.90;59.70;;;;;;5012276;28;19965;-64
2023/06/26 13:12:53;;;;;;;;;;;31.90;59.10;;;;;;5029337;28;20038;-64
2023/06/26 13:15:19;;;;;;;;;;;32.00;58.20;;;;;;5030647;28;19925;-63
2023/06/26 13:17:51;;;;;;;;;;;32.00;57.30;;;;;;5028332;28;19929;-64
2023/06/26 13:20:22;;;;;;;;;;;32.30;58.80;;;;;;5025291;28;19929;-64
2023/06/26 13:22:55;;;;;;;;;;;32.50;58.10;;;;;;5028264;28;19936;-65
2023/06/26 13:25:27;;;;;;;;;;;32.50;57.40;;;;;;5025803;28;19929;-64
2023/06/26 13:27:59;;;;;;;;;;;32.60;57.10;;;;;;5027021;28;19925;-64
2023/06/26 13:30:30;;;;;;;;;;;32.60;58.20;;;;;;5030039;28;19961;-64
2023/06/26 13:33:02;;;;;;;;;;;32.30;57.40;;;;;;5026009;28;19929;-64
2023/06/26 13:35:34;;;;;;;;;;;31.90;57.70;;;;;;5028102;28;20012;-65
2023/06/26 13:38:01;;;;;;;;;;;31.70;59.10;;;;;;5031473;28;20188;-64
2023/06/26 13:40:33;;;;;;;;;;;31.50;60.10;;;;;;5031833;28;20396;-64
2023/06/26 13:43:04;;;;;;;;;;;31.30;61.50;;;;;;5028502;28;19951;-64
2023/06/26 13:45:36;;;;;;;;;;;31.10;62.10;;;;;;5025783;28;19929;-65
2023/06/26 13:48:08;;;;;;;;;;;31.20;63.20;;;;;;5030155;28;19929;-64
2023/06/26 13:50:40;;;;;;;;;;;31.30;62.70;;;;;;5027258;28;19935;-64
2023/06/26 13:53:12;;;;;;;;;;;31.60;63.00;;;;;;5025116;28;19929;-64
2023/06/26 13:55:43;;;;;;;;;;;31.80;61.40;;;;;;5026848;28;19956;-64
2023/06/26 13:58:15;;;;;;;;;;;32.00;61.00;;;;;;5028844;28;19925;-64
2023/06/26 14:00:46;;;;;;;;;;;32.10;60.40;;;;;;5024079;28;19926;-64
2023/06/26 14:03:18;;;;;;;;;;;32.10;60.70;;;;;;5029691;28;20020;-64
2023/06/26 14:05:50;;;;;;;;;;;32.00;60.70;;;;;;5028560;28;19929;-64
2023/06/26 14:08:22;;;;;;;;;;;31.80;61.50;;;;;;5028980;28;19929;-65
2023/06/26 14:10:55;;;;;;;;;;;31.60;61.90;;;;;;5025255;28;20814;-63
2023/06/26 14:13:27;;;;;;;;;;;31.30;62.00;;;;;;5024154;28;19925;-64
2023/06/26 14:15:58;;;;;;;;;;;31.00;63.00;;;;;;5027333;28;20409;-63
2023/06/26 14:18:31;;;;;;;;;;;30.80;64.80;;;;;;5021386;28;20297;-64
2023/06/26 14:21:02;;;;;;;;;;;30.70;65.10;;;;;;5022208;28;20023;-64
2023/06/26 14:23:29;;;;;;;;;;;30.60;64.50;;;;;;5027325;28;19933;-64
2023/06/26 14:26:01;;;;;;;;;;;30.70;64.10;;;;;;5025148;28;19951;-64
2023/06/26 14:28:33;;;;;;;;;;;31.10;64.70;;;;;;5029576;28;19925;-63
2023/06/26 14:31:05;;;;;;;;;;;31.00;64.40;;;;;;5027091;28;19936;-64
2023/06/26 14:33:36;;;;;;;;;;;30.90;65.20;;;;;;5026955;28;20043;-64
2023/06/26 14:36:08;;;;;;;;;;;30.90;65.70;;;;;;5024223;28;19925;-64
2023/06/26 14:38:40;;;;;;;;;;;31.00;67.10;;;;;;5023788;28;19926;-64
2023/06/26 14:41:12;;;;;;;;;;;31.10;66.90;;;;;;5028777;28;20390;-64
2023/06/26 14:43:45;;;;;;;;;;;31.10;65.80;;;;;;5026099;28;20056;-64